Time;durP1;ratioP1;P1;durP2;ratioP2;P2;SDS_P1;SDS_P2;PMS_P1;PMS_P2;Temp;Humidity;BMP_temperature;BMP_pressure;BME280_temperature;BME280_humidity;BME280_pressure;Samples;Min_cycle;Max_cycle;Signal;HPM_P1;HPM_P2
2022/10/15 00:00:08;;;;;;;27.17;16.50;;;;;;;18.65;56.18;100553.91;5024170;27;99401;-66
2022/10/15 00:02:34;;;;;;;24.63;16.73;;;;;;;18.34;57.20;100540.97;5020689;28;97424;-65
2022/10/15 00:05:01;;;;;;;24.67;16.35;;;;;;;18.19;57.79;100542.06;5023574;27;98137;-66
2022/10/15 00:07:28;;;;;;;27.35;16.83;;;;;;;18.38;57.12;100544.31;5024894;27;98897;-66
2022/10/15 00:09:55;;;;;;;26.52;17.75;;;;;;;18.48;57.42;100538.19;5014697;27;100145;-67
2022/10/15 00:12:22;;;;;;;27.15;16.60;;;;;;;18.29;58.29;100540.47;5012521;28;97264;-69
2022/10/15 00:14:49;;;;;;;28.48;17.42;;;;;;;18.32;58.24;100537.56;5012084;28;98785;-67
2022/10/15 00:17:15;;;;;;;28.90;16.98;;;;;;;18.42;58.23;100527.94;5007650;28;98936;-66
2022/10/15 00:19:41;;;;;;;26.70;17.00;;;;;;;18.32;58.76;100529.53;5015802;28;99429;-67
2022/10/15 00:22:08;;;;;;;25.70;16.75;;;;;;;18.28;59.39;100520.03;5021817;28;100091;-66
2022/10/15 00:24:34;;;;;;;26.25;17.48;;;;;;;18.13;60.17;100521.09;5020586;27;96885;-65
2022/10/15 00:27:00;;;;;;;26.58;17.20;;;;;;;18.14;60.46;100517.47;5021558;28;98994;-66
2022/10/15 00:29:28;;;;;;;26.85;17.75;;;;;;;18.18;60.36;100509.09;5021792;28;98947;-65
2022/10/15 00:31:54;;;;;;;29.42;18.20;;;;;;;18.15;60.96;100513.84;5024028;27;98597;-65
2022/10/15 00:34:21;;;;;;;24.20;17.80;;;;;;;18.24;60.63;100505.16;5026034;28;99397;-67
2022/10/15 00:36:50;;;;;;;32.42;18.23;;;;;;;18.25;61.13;100520.22;5025272;28;99472;-65
2022/10/15 00:39:16;;;;;;;23.90;16.67;;;;;;;18.26;61.20;100512.09;5028596;28;99705;-66
2022/10/15 00:41:44;;;;;;;29.17;17.33;;;;;;;18.11;61.86;100513.22;5023115;28;98567;-65
2022/10/15 00:44:48;;;;;;;26.35;18.83;;;;;;;18.36;61.27;100508.78;5021172;28;98703;-65
2022/10/15 00:47:18;;;;;;;28.02;18.02;;;;;;;17.99;62.58;100505.16;5023101;28;97783;-66
2022/10/15 00:49:48;;;;;;;26.67;17.75;;;;;;;18.21;62.08;100510.72;5014514;28;98841;-66
2022/10/15 00:52:17;;;;;;;31.65;19.33;;;;;;;18.29;61.81;100511.91;5014332;27;98484;-66
2022/10/15 00:54:48;;;;;;;32.58;18.58;;;;;;;18.02;62.37;100507.63;5008079;28;98632;-66
2022/10/15 00:57:14;;;;;;;28.40;18.00;;;;;;;18.21;61.93;100500.88;5008994;28;99587;-65
2022/10/15 00:59:44;;;;;;;33.28;19.23;;;;;;;18.16;62.11;100497.69;5014057;28;98303;-65
2022/10/15 01:02:12;;;;;;;33.15;19.85;;;;;;;18.15;62.12;100490.63;5015031;28;98616;-66
2022/10/15 01:04:40;;;;;;;28.70;19.05;;;;;;;18.09;62.18;100484.84;5010738;28;98495;-66
2022/10/15 01:07:08;;;;;;;36.08;18.80;;;;;;;17.88;63.73;100480.03;5017024;27;99153;-66
2022/10/15 01:09:35;;;;;;;27.10;18.73;;;;;;;18.15;62.25;100479.06;5019705;28;100192;-66
2022/10/15 01:12:02;;;;;;;32.65;20.02;;;;;;;18.32;62.15;100476.88;5015353;28;98595;-67
2022/10/15 01:14:39;;;;;;;33.13;19.92;;;;;;;18.20;62.24;100475.09;5015164;28;96940;-66
2022/10/15 01:17:17;;;;;;;27.30;19.15;;;;;;;18.32;61.92;100468.00;5012527;28;99445;-66
2022/10/15 01:20:11;;;;;;;29.10;18.92;;;;;;;18.07;62.77;100463.56;5013638;28;98746;-66
2022/10/15 01:22:52;;;;;;;34.42;20.30;;;;;;;18.05;63.09;100461.97;5010652;28;100227;-66
2022/10/15 01:25:36;;;;;;;32.70;19.10;;;;;;;18.09;63.29;100460.78;5025594;28;98855;-66
2022/10/15 01:28:16;;;;;;;28.05;18.80;;;;;;;17.97;63.71;100461.66;5024598;28;97979;-66
2022/10/15 01:30:46;;;;;;;36.97;19.50;;;;;;;18.05;63.49;100464.66;5016144;28;98841;-66
2022/10/15 01:33:26;;;;;;;27.65;19.25;;;;;;;18.07;63.12;100449.34;5015693;28;98618;-68
2022/10/15 01:35:57;;;;;;;36.13;20.10;;;;;;;18.01;63.83;100455.97;5011183;28;97843;-65
2022/10/15 01:38:34;;;;;;;25.80;18.50;;;;;;;18.00;63.43;100446.25;5022585;28;99144;-66
2022/10/15 01:41:09;;;;;;;28.15;18.52;;;;;;;17.95;64.42;100455.56;5024751;28;98789;-66
2022/10/15 01:43:43;;;;;;;28.92;18.88;;;;;;;18.07;63.82;100452.88;5023665;27;98827;-66
2022/10/15 01:46:17;;;;;;;29.92;18.75;;;;;;;18.16;63.72;100446.03;5026265;27;98806;-65
2022/10/15 01:48:43;;;;;;;27.75;18.88;;;;;;;18.23;63.28;100441.94;5023235;28;98939;-65
2022/10/15 01:51:13;;;;;;;26.25;18.00;;;;;;;18.19;63.44;100440.44;5026090;27;98573;-66
2022/10/15 01:53:41;;;;;;;31.85;19.05;;;;;;;18.04;63.95;100441.56;5025330;28;98666;-66
2022/10/15 01:56:09;;;;;;;27.48;18.95;;;;;;;18.13;63.70;100438.19;5024024;28;97739;-66
2022/10/15 01:58:39;;;;;;;27.92;18.27;;;;;;;18.01;64.14;100447.09;5025036;28;98947;-66
2022/10/15 02:01:05;;;;;;;29.15;18.85;;;;;;;17.86;64.91;100439.19;5025064;27;98780;-66
2022/10/15 02:03:43;;;;;;;27.55;19.60;;;;;;;18.13;64.08;100431.03;5027288;28;99317;-66
2022/10/15 02:06:16;;;;;;;27.80;19.65;;;;;;;18.10;64.15;100430.41;5025772;28;97750;-66
2022/10/15 02:08:48;;;;;;;31.17;19.27;;;;;;;18.14;64.06;100426.56;5020644;28;97833;-66
2022/10/15 02:11:16;;;;;;;30.17;19.42;;;;;;;17.97;64.42;100425.09;5019130;28;101741;-66
2022/10/15 02:13:53;;;;;;;28.95;19.15;;;;;;;18.02;64.63;100427.44;5026106;28;96915;-65
2022/10/15 02:16:22;;;;;;;;;;;;;;;18.11;64.54;100424.09;5025406;28;97771;-66
2022/10/15 02:18:57;;;;;;;28.50;18.88;;;;;;;18.12;64.23;100423.13;5022816;28;98926;-67
2022/10/15 02:21:31;;;;;;;36.10;20.45;;;;;;;17.99;64.79;100416.94;5021456;28;99291;-66
2022/10/15 02:24:06;;;;;;;35.58;20.55;;;;;;;18.02;64.48;100416.75;5023751;28;100071;-65
2022/10/15 02:26:34;;;;;;;30.17;18.92;;;;;;;18.18;64.14;100420.03;5023490;28;97072;-66
2022/10/15 02:29:03;;;;;;;27.90;19.20;;;;;;;18.08;64.65;100416.28;5022417;28;99288;-67
2022/10/15 02:31:33;;;;;;;29.40;19.50;;;;;;;18.11;64.57;100422.28;5024828;28;99218;-65
2022/10/15 02:34:05;;;;;;;36.10;19.25;;;;;;;18.08;64.74;100416.28;5021692;28;98663;-66
2022/10/15 02:36:32;;;;;;;28.48;19.30;;;;;;;18.02;64.96;100416.75;5021477;28;96884;-66
2022/10/15 02:39:01;;;;;;;29.33;18.80;;;;;;;18.31;64.02;100415.50;5019324;28;98956;-67
2022/10/15 02:41:29;;;;;;;30.75;19.30;;;;;;;18.17;64.58;100415.66;5023004;28;98876;-66
2022/10/15 02:43:55;;;;;;;31.38;19.77;;;;;;;18.17;64.48;100407.63;5024363;28;98678;-67
2022/10/15 02:46:22;;;;;;;32.75;19.60;;;;;;;18.32;63.93;100410.03;5018619;28;98743;-67
2022/10/15 02:48:48;;;;;;;28.80;19.60;;;;;;;18.31;64.14;100399.47;5010133;28;98641;-66
2022/10/15 02:51:16;;;;;;;31.55;19.08;;;;;;;18.32;64.21;100393.97;5019419;28;99605;-66
2022/10/15 02:53:42;;;;;;;30.25;19.35;;;;;;;18.26;64.22;100406.94;5010435;28;98399;-66
2022/10/15 02:56:09;;;;;;;32.60;20.15;;;;;;;18.31;63.77;100400.28;5010441;27;99180;-65
2022/10/15 02:58:35;;;;;;;29.45;20.02;;;;;;;18.43;63.70;100401.22;5010156;28;99159;-66
2022/10/15 03:01:01;;;;;;;27.35;18.73;;;;;;;18.21;64.71;100401.06;5012515;28;98690;-66
2022/10/15 03:03:28;;;;;;;31.15;19.83;;;;;;;18.25;64.54;100403.41;5010517;28;98544;-66
2022/10/15 03:05:54;;;;;;;29.45;19.65;;;;;;;18.31;64.20;100402.97;5016910;28;97676;-66
2022/10/15 03:08:22;;;;;;;31.52;19.05;;;;;;;18.25;64.36;100400.72;5009252;28;100830;-66
2022/10/15 03:10:48;;;;;;;29.58;19.38;;;;;;;18.25;64.28;100400.72;5017161;28;98928;-66
2022/10/15 03:13:14;;;;;;;29.70;19.73;;;;;;;18.19;64.73;100400.31;5010555;28;96909;-66
2022/10/15 03:15:41;;;;;;;30.98;19.52;;;;;;;18.23;64.80;100404.50;5012299;28;98643;-66
2022/10/15 03:18:08;;;;;;;30.65;20.10;;;;;;;18.17;64.85;100394.25;5011377;28;99097;-66
2022/10/15 03:20:34;;;;;;;28.40;19.02;;;;;;;18.24;64.59;100400.88;5012869;28;99026;-66
2022/10/15 03:23:00;;;;;;;25.27;18.70;;;;;;;18.35;63.97;100400.94;5010090;28;97525;-66
2022/10/15 03:25:28;;;;;;;34.08;19.95;;;;;;;18.07;65.26;100385.16;5008529;28;97714;-66
2022/10/15 03:27:55;;;;;;;29.15;19.83;;;;;;;18.20;64.79;100383.31;5008398;28;99328;-66
2022/10/15 03:30:21;;;;;;;29.60;19.15;;;;;;;18.00;65.22;100386.56;5013847;28;98433;-67
2022/10/15 03:32:47;;;;;;;30.27;19.80;;;;;;;17.88;65.38;100378.47;5008361;28;98669;-66
2022/10/15 03:35:14;;;;;;;33.17;19.70;;;;;;;17.97;65.60;100382.31;5012710;27;96959;-65
2022/10/15 03:37:40;;;;;;;26.23;18.20;;;;;;;18.16;64.97;100381.84;5013299;28;98735;-66
2022/10/15 03:40:08;;;;;;;29.98;19.60;;;;;;;18.08;64.89;100373.50;5023822;28;98826;-66
2022/10/15 03:42:35;;;;;;;29.92;19.23;;;;;;;17.95;65.68;100383.38;5025449;28;97147;-66
2022/10/15 03:45:02;;;;;;;29.23;19.73;;;;;;;18.20;64.77;100377.97;5025969;27;97728;-66
2022/10/15 03:47:28;;;;;;;31.92;20.55;;;;;;;17.84;65.78;100370.81;5024675;28;99269;-66
2022/10/15 03:49:55;;;;;;;29.90;19.25;;;;;;;17.92;65.39;100371.94;5024783;28;98924;-66
2022/10/15 03:52:21;;;;;;;31.02;20.45;;;;;;;18.11;64.89;100378.66;5024261;28;97543;-66
2022/10/15 03:54:47;;;;;;;29.35;19.15;;;;;;;17.97;65.44;100379.66;5023546;28;97034;-67
2022/10/15 03:57:14;;;;;;;32.50;20.17;;;;;;;18.17;64.68;100378.22;5022591;28;99031;-66
2022/10/15 03:59:41;;;;;;;31.08;20.48;;;;;;;18.17;64.96;100372.84;5022750;28;100876;-66
2022/10/15 04:02:08;;;;;;;31.17;19.20;;;;;;;18.13;64.93;100379.38;5025144;28;97893;-67
2022/10/15 04:04:34;;;;;;;31.20;19.17;;;;;;;18.15;64.84;100377.47;5023370;27;97698;-67
2022/10/15 04:07:01;;;;;;;28.40;18.92;;;;;;;18.05;65.39;100379.09;5024458;27;97917;-68
2022/10/15 04:09:27;;;;;;;28.48;18.92;;;;;;;18.16;64.78;100374.69;5026322;28;97881;-67
2022/10/15 04:11:53;;;;;;;28.20;19.55;;;;;;;18.09;65.29;100380.56;5014191;27;98297;-67
2022/10/15 04:14:20;;;;;;;29.52;19.05;;;;;;;18.11;65.25;100387.53;5015332;28;98523;-67
2022/10/15 04:16:47;;;;;;;25.55;17.92;;;;;;;18.08;64.96;100379.72;5014473;28;101928;-65
2022/10/15 04:19:14;;;;;;;27.45;18.02;;;;;;;18.12;65.07;100388.34;5019653;28;98807;-65
2022/10/15 04:21:41;;;;;;;27.08;19.50;;;;;;;18.03;65.38;100386.38;5027882;28;96866;-65
2022/10/15 04:24:08;;;;;;;25.90;17.75;;;;;;;18.04;65.46;100388.94;5023950;27;96867;-65
2022/10/15 04:26:34;;;;;;;30.10;19.17;;;;;;;17.87;65.92;100386.59;5026506;28;99042;-66
2022/10/15 04:29:00;;;;;;;29.63;18.77;;;;;;;17.84;65.93;100387.69;5022790;28;98805;-66
2022/10/15 04:31:27;;;;;;;28.92;19.50;;;;;;;17.97;65.68;100392.16;5024306;28;97108;-65
2022/10/15 04:33:55;;;;;;;27.25;18.33;;;;;;;17.95;65.61;100386.06;5027191;27;98458;-66
2022/10/15 04:36:21;;;;;;;28.17;18.80;;;;;;;18.06;65.23;100394.16;5022230;28;100538;-65
2022/10/15 04:38:47;;;;;;;28.00;17.58;;;;;;;17.95;65.49;100388.72;5024996;28;98954;-66
2022/10/15 04:41:14;;;;;;;28.67;18.15;;;;;;;17.93;65.91;100386.16;5028411;28;96937;-66
2022/10/15 04:43:40;;;;;;;30.35;18.38;;;;;;;18.14;65.11;100389.97;5026269;28;98900;-66
2022/10/15 04:46:08;;;;;;;34.58;18.83;;;;;;;18.01;65.55;100394.50;5024131;28;100833;-66
2022/10/15 04:48:36;;;;;;;25.70;17.98;;;;;;;17.88;65.65;100391.00;5025269;28;97828;-66
2022/10/15 04:51:06;;;;;;;26.73;17.92;;;;;;;18.06;65.44;100394.16;5023114;28;96851;-66
2022/10/15 04:53:32;;;;;;;34.28;18.88;;;;;;;18.04;65.40;100393.44;5013398;27;98732;-67
2022/10/15 04:56:01;;;;;;;29.02;18.67;;;;;;;17.97;65.77;100392.16;5010102;28;99537;-66
2022/10/15 04:58:29;;;;;;;32.28;18.83;;;;;;;18.19;65.20;100400.31;5013600;28;98962;-67
2022/10/15 05:00:59;;;;;;;27.48;17.52;;;;;;;18.28;64.58;100403.19;5011434;28;98859;-66
2022/10/15 05:03:25;;;;;;;23.88;17.17;;;;;;;18.41;64.14;100402.31;5012006;28;98788;-66
2022/10/15 05:05:52;;;;;;;27.90;17.48;;;;;;;18.22;64.75;100400.97;5011556;28;99212;-66
2022/10/15 05:08:19;;;;;;;22.27;16.30;;;;;;;18.16;64.90;100393.41;5020654;28;96936;-67
2022/10/15 05:10:46;;;;;;;28.65;16.63;;;;;;;18.21;64.66;100391.25;5015653;28;98630;-66
2022/10/15 05:13:12;;;;;;;23.52;16.67;;;;;;;18.17;64.85;100392.44;5013752;28;98711;-65
2022/10/15 05:15:38;;;;;;;24.83;16.42;;;;;;;18.20;64.62;100394.00;5012089;28;99006;-66
2022/10/15 05:18:05;;;;;;;26.90;17.10;;;;;;;18.09;65.29;100385.91;5013415;27;99398;-66
2022/10/15 05:20:31;;;;;;;27.48;16.95;;;;;;;18.29;64.83;100394.22;5013328;28;100076;-66
2022/10/15 05:22:58;;;;;;;29.75;16.48;;;;;;;18.30;64.47;100398.59;5013866;28;98466;-67
2022/10/15 05:25:25;;;;;;;23.23;15.98;;;;;;;18.42;64.18;100394.16;5013045;28;99693;-66
2022/10/15 05:27:51;;;;;;;24.98;15.32;;;;;;;18.12;64.76;100396.38;5011853;28;99148;-66
2022/10/15 05:30:18;;;;;;;22.70;16.55;;;;;;;18.30;64.37;100401.28;5010591;28;98220;-66
2022/10/15 05:32:44;;;;;;;23.27;15.07;;;;;;;18.37;64.07;100400.81;5012895;28;97931;-66
2022/10/15 05:35:11;;;;;;;22.67;15.45;;;;;;;18.24;64.43;100400.88;5013021;28;101586;-66
2022/10/15 05:37:37;;;;;;;29.10;16.10;;;;;;;17.95;65.33;100405.63;5014727;28;99808;-67
2022/10/15 05:40:04;;;;;;;24.13;16.83;;;;;;;17.74;66.22;100408.00;5024877;28;98632;-65
2022/10/15 05:42:32;;;;;;;29.90;15.75;;;;;;;17.97;65.49;100409.06;5026493;28;96967;-66
2022/10/15 05:44:58;;;;;;;26.00;15.80;;;;;;;17.95;65.59;100418.13;5025227;28;99266;-66
2022/10/15 05:47:25;;;;;;;24.88;15.60;;;;;;;17.81;66.22;100413.75;5025898;28;98841;-66
2022/10/15 05:49:51;;;;;;;26.20;15.77;;;;;;;18.11;65.38;100413.41;5027274;28;96774;-66
2022/10/15 05:52:17;;;;;;;25.40;15.07;;;;;;;18.08;65.54;100410.94;5024288;28;97469;-65
2022/10/15 05:54:44;;;;;;;25.77;16.48;;;;;;;18.16;64.94;100411.25;5025729;28;99991;-66
2022/10/15 05:57:10;;;;;;;22.88;14.75;;;;;;;18.24;64.84;100416.91;5022380;28;98849;-66
2022/10/15 05:59:38;;;;;;;26.27;14.80;;;;;;;18.15;65.39;100418.41;5026758;28;97157;-66
2022/10/15 06:02:04;;;;;;;20.20;14.02;;;;;;;18.19;65.20;100419.03;5025471;27;96906;-68
2022/10/15 06:04:31;;;;;;;22.02;14.50;;;;;;;17.97;65.86;100427.75;5026057;28;99150;-66
2022/10/15 06:06:57;;;;;;;24.95;15.25;;;;;;;17.98;66.00;100429.47;5027497;28;98841;-66
2022/10/15 06:09:24;;;;;;;22.48;15.18;;;;;;;18.20;64.86;100431.44;5020665;27;98634;-66
2022/10/15 06:11:50;;;;;;;20.58;14.88;;;;;;;17.98;65.39;100432.16;5017874;27;98614;-65
2022/10/15 06:14:17;;;;;;;21.55;15.32;;;;;;;17.86;66.23;100441.88;5008494;27;99123;-66
2022/10/15 06:16:44;;;;;;;23.92;15.20;;;;;;;17.97;65.56;100437.59;5011310;28;99150;-65
2022/10/15 06:19:11;;;;;;;24.17;15.27;;;;;;;18.12;65.29;100437.34;5008681;28;97758;-65
2022/10/15 06:21:37;;;;;;;19.65;13.77;;;;;;;18.05;65.59;100443.28;5010965;28;98877;-65
2022/10/15 06:24:04;;;;;;;23.35;14.63;;;;;;;17.85;66.32;100440.16;5009649;28;99484;-64
2022/10/15 06:26:31;;;;;;;18.92;14.48;;;;;;;17.95;66.00;100442.19;5011140;28;98902;-65
2022/10/15 06:28:58;;;;;;;22.88;15.35;;;;;;;17.98;65.78;100450.88;5016046;28;97677;-66
2022/10/15 06:31:24;;;;;;;24.23;14.95;;;;;;;18.22;65.22;100446.44;5011156;28;98912;-66
2022/10/15 06:33:52;;;;;;;20.48;14.52;;;;;;;18.21;65.23;100443.88;5012289;28;99144;-67
2022/10/15 06:36:23;;;;;;;22.08;14.93;;;;;;;18.42;64.63;100447.66;5014393;28;98839;-67
2022/10/15 06:38:49;;;;;;;21.92;15.50;;;;;;;18.44;64.09;100451.09;5016188;27;98160;-66
2022/10/15 06:41:16;;;;;;;21.73;15.07;;;;;;;18.45;64.49;100458.13;5016670;28;97678;-66
2022/10/15 06:43:43;;;;;;;18.75;14.05;;;;;;;18.42;64.14;100461.03;5014503;28;99447;-65
2022/10/15 06:46:10;;;;;;;20.60;13.85;;;;;;;18.69;63.44;100463.56;5010318;28;100966;-66
2022/10/15 06:48:37;;;;;;;22.38;14.27;;;;;;;18.78;63.40;100464.69;5014342;28;96837;-66
2022/10/15 06:51:05;;;;;;;30.40;14.20;;;;;;;18.71;63.75;100466.97;5011486;28;98271;-67
2022/10/15 06:53:32;;;;;;;20.20;14.13;;;;;;;19.19;62.33;100469.63;5016182;28;99081;-65
2022/10/15 06:55:59;;;;;;;18.73;13.68;;;;;;;19.06;62.71;100467.03;5012202;28;98893;-67
2022/10/15 06:58:26;;;;;;;17.00;12.75;;;;;;;19.29;62.15;100468.84;5013666;27;98896;-66
2022/10/15 07:00:52;;;;;;;18.77;12.98;;;;;;;19.10;63.05;100469.34;5024523;27;99110;-67
2022/10/15 07:03:19;;;;;;;19.35;13.57;;;;;;;19.18;62.57;100475.97;5025486;28;99571;-67
2022/10/15 07:05:45;;;;;;;18.90;13.15;;;;;;;19.09;62.53;100490.91;5018116;28;99643;-67
2022/10/15 07:08:13;;;;;;;18.85;13.25;;;;;;;19.30;62.50;100491.09;5021574;27;96826;-67
2022/10/15 07:10:39;;;;;;;16.80;13.07;;;;;;;19.43;61.81;100489.19;5022054;27;96999;-67
2022/10/15 07:13:05;;;;;;;17.73;12.18;;;;;;;19.29;61.55;100495.63;5023094;27;98951;-67
2022/10/15 07:15:32;;;;;;;19.92;13.13;;;;;;;19.21;61.84;100495.34;5017253;27;99332;-67
2022/10/15 07:18:00;;;;;;;19.48;13.23;;;;;;;19.39;61.33;100509.16;5021502;28;98560;-66
2022/10/15 07:20:28;;;;;;;17.88;13.25;;;;;;;19.26;61.73;100513.75;5021431;28;98936;-67
2022/10/15 07:22:56;;;;;;;19.70;12.57;;;;;;;19.32;61.99;100505.25;5022231;27;99503;-67
2022/10/15 07:25:24;;;;;;;16.15;12.05;;;;;;;19.46;61.54;100503.28;5023253;27;97787;-67
2022/10/15 07:27:51;;;;;;;17.38;12.27;;;;;;;19.63;61.03;100509.16;5023230;27;97095;-67
2022/10/15 07:30:17;;;;;;;18.08;12.70;;;;;;;19.62;60.79;100500.28;5021418;28;97630;-66
2022/10/15 07:32:44;;;;;;;16.88;12.98;;;;;;;19.82;60.12;100496.06;5024749;28;99363;-69
2022/10/15 07:35:10;;;;;;;19.63;12.55;;;;;;;20.06;59.63;100488.78;5020730;28;101900;-68
2022/10/15 07:37:37;;;;;;;18.25;12.70;;;;;;;20.05;59.99;100487.06;5027916;28;96833;-66
2022/10/15 07:40:04;;;;;;;17.75;11.90;;;;;;;20.15;59.37;100489.88;5023617;27;97844;-67
2022/10/15 07:42:31;;;;;;;19.13;12.38;;;;;;;20.27;58.81;100492.44;5018506;28;98938;-67
2022/10/15 07:44:58;;;;;;;14.95;11.27;;;;;;;20.11;59.17;100507.16;5019978;28;99217;-67
2022/10/15 07:47:24;;;;;;;15.70;11.88;;;;;;;20.41;58.78;100498.56;5019377;28;98504;-67
2022/10/15 07:49:51;;;;;;;781.50;147.38;;;;;;;20.64;57.76;100500.25;5023541;28;97761;-67
2022/10/15 07:52:17;;;;;;;185.00;36.15;;;;;;;20.58;58.12;100492.69;5024100;28;99706;-68
2022/10/15 07:54:43;;;;;;;337.45;59.85;;;;;;;20.90;57.54;100488.22;5023645;28;99289;-67
2022/10/15 07:57:10;;;;;;;335.98;64.53;;;;;;;21.05;56.71;100492.34;5024338;27;97168;-69
2022/10/15 07:59:37;;;;;;;88.95;23.13;;;;;;;21.21;56.71;100483.84;5021543;28;97978;-69
2022/10/15 08:02:04;;;;;;;23.20;12.07;;;;;;;20.87;57.25;100488.44;5026556;27;101804;-67
2022/10/15 08:04:30;;;;;;;12.52;9.73;;;;;;;20.71;57.27;100490.72;5023271;27;98647;-68
2022/10/15 08:06:57;;;;;;;17.98;10.38;;;;;;;21.21;56.37;100489.22;5024727;28;96872;-67
2022/10/15 08:09:24;;;;;;;40.40;14.45;;;;;;;21.04;56.60;100493.31;5023246;28;96908;-67
2022/10/15 08:11:50;;;;;;;13.02;9.60;;;;;;;20.92;57.00;100488.94;5023412;28;98503;-67
2022/10/15 08:14:17;;;;;;;11.75;9.25;;;;;;;21.28;56.45;100501.19;5019281;28;98461;-67
2022/10/15 08:16:45;;;;;;;15.50;9.43;;;;;;;21.11;56.86;100500.84;5022770;28;97769;-67
2022/10/15 08:19:12;;;;;;;13.10;9.23;;;;;;;21.29;56.36;100502.03;5022975;27;97147;-67
2022/10/15 08:21:38;;;;;;;16.60;9.43;;;;;;;21.15;56.52;100500.47;5018737;27;98963;-67
2022/10/15 08:24:05;;;;;;;19.88;9.60;;;;;;;21.61;55.65;100507.38;5017941;27;99106;-67
2022/10/15 08:26:32;;;;;;;10.25;8.35;;;;;;;21.44;55.61;100506.13;5015982;27;97373;-67
2022/10/15 08:28:58;;;;;;;13.25;8.35;;;;;;;21.77;54.74;100503.25;5022950;27;96920;-67
2022/10/15 08:31:25;;;;;;;22.95;10.82;;;;;;;22.38;53.33;100510.56;5021668;27;99275;-67
2022/10/15 08:33:53;;;;;;;11.13;8.90;;;;;;;21.80;53.94;100507.50;5023253;27;98856;-69
2022/10/15 08:36:19;;;;;;;15.00;8.95;;;;;;;22.20;53.59;100515.69;5021662;27;97150;-68
2022/10/15 08:38:46;;;;;;;12.05;8.30;;;;;;;21.61;54.85;100510.91;5016118;27;97017;-67
2022/10/15 08:41:24;;;;;;;14.57;8.18;;;;;;;22.17;53.32;100515.97;5023014;27;97792;-67
2022/10/15 08:43:51;;;;;;;14.98;9.35;;;;;;;22.18;53.47;100513.16;5023720;27;99756;-67
2022/10/15 08:46:23;;;;;;;13.50;8.73;;;;;;;21.68;53.87;100501.34;5023611;27;97631;-72
2022/10/15 08:48:53;;;;;;;12.50;9.13;;;;;;;21.34;54.67;100510.56;5023021;27;97905;-71
2022/10/15 08:51:23;;;;;;;14.20;9.50;;;;;;;21.11;55.64;100512.47;5021534;27;99075;-71
2022/10/15 08:53:53;;;;;;;15.52;9.50;;;;;;;21.44;55.12;100511.50;5021680;27;98720;-70
2022/10/15 08:56:24;;;;;;;16.35;9.27;;;;;;;21.76;54.41;100506.94;5026780;28;97649;-71
2022/10/15 08:58:56;;;;;;;14.65;8.85;;;;;;;21.56;54.73;100512.28;5027928;27;97257;-71
2022/10/15 09:01:28;;;;;;;17.33;10.20;;;;;;;21.62;54.72;100518.00;5022102;27;102462;-70
2022/10/15 09:04:06;;;;;;;13.50;8.68;;;;;;;22.34;53.04;100517.19;5029251;27;99245;-70
2022/10/15 09:06:36;;;;;;;9.73;8.02;;;;;;;22.27;52.98;100522.25;5028179;27;97088;-71
2022/10/15 09:09:19;;;;;;;11.70;8.48;;;;;;;22.26;52.16;100528.63;5020902;28;97138;-69
2022/10/15 09:11:55;;;;;;;12.02;8.77;;;;;;;22.27;52.05;100527.63;5024593;27;98947;-68
2022/10/15 09:14:27;;;;;;;16.90;11.07;;;;;;;21.99;52.92;100533.72;5018281;27;99132;-68
2022/10/15 09:16:54;;;;;;;10.00;8.00;;;;;;;21.84;53.37;100527.78;5021407;27;96782;-68
2022/10/15 09:19:23;;;;;;;9.93;8.07;;;;;;;22.18;52.54;100523.06;5021476;27;97163;-68
2022/10/15 09:22:05;;;;;;;10.32;8.30;;;;;;;21.97;52.92;100522.25;5023424;27;99962;-68
2022/10/15 09:24:32;;;;;;;10.38;7.72;;;;;;;22.33;52.15;100527.09;5019212;27;97523;-68
2022/10/15 09:27:07;;;;;;;11.30;8.00;;;;;;;22.20;52.29;100526.47;5020769;28;98577;-67
2022/10/15 09:29:42;;;;;;;9.48;7.95;;;;;;;21.87;52.94;100528.38;5020750;27;97110;-67
2022/10/15 09:32:17;;;;;;;9.60;8.30;;;;;;;21.78;53.85;100525.63;5025243;27;100814;-67
2022/10/15 09:34:50;;;;;;;12.03;7.57;;;;;;;22.17;52.37;100526.75;5019136;27;99642;-67
2022/10/15 09:37:47;;;;;;;8.57;7.47;;;;;;;22.32;52.05;100533.44;5026010;27;96799;-69
2022/10/15 09:40:39;;;;;;;12.85;7.82;;;;;;;22.34;52.13;100539.56;5022620;27;96891;-67
2022/10/15 09:43:07;;;;;;;12.70;9.68;;;;;;;22.27;51.54;100533.00;5025155;27;99003;-68
2022/10/15 09:45:39;;;;;;;11.30;9.35;;;;;;;22.30;51.24;100534.59;5025473;27;99327;-69
2022/10/15 09:48:15;;;;;;;11.82;8.82;;;;;;;22.66;50.86;100537.56;5020795;28;97145;-67
2022/10/15 09:50:53;;;;;;;10.23;8.85;;;;;;;23.09;49.77;100535.59;5025321;27;97161;-68
2022/10/15 09:53:31;;;;;;;12.95;9.23;;;;;;;23.27;49.02;100545.53;5021758;27;97783;-68
2022/10/15 09:56:08;;;;;;;13.18;8.40;;;;;;;22.69;50.10;100535.59;5025831;27;98927;-67
2022/10/15 09:58:40;;;;;;;10.77;8.05;;;;;;;23.44;48.89;100534.03;5022642;27;96885;-67
2022/10/15 10:01:16;;;;;;;9.80;7.82;;;;;;;23.05;48.79;100532.31;5026141;27;98762;-69
2022/10/15 10:03:42;;;;;;;9.98;8.10;;;;;;;23.21;48.98;100537.16;5026694;28;99653;-67
2022/10/15 10:06:11;;;;;;;11.43;8.00;;;;;;;22.93;49.67;100538.81;5015823;27;97695;-67
2022/10/15 10:08:43;;;;;;;12.25;8.30;;;;;;;23.12;49.55;100536.16;5024624;28;96992;-68
2022/10/15 10:11:11;;;;;;;9.15;7.07;;;;;;;23.09;49.27;100538.28;5024392;27;96862;-67
2022/10/15 10:13:42;;;;;;;9.73;7.82;;;;;;;22.96;49.93;100546.63;5019462;27;100015;-67
2022/10/15 10:16:13;;;;;;;8.73;7.82;;;;;;;22.72;50.16;100546.94;5022280;28;102011;-69
2022/10/15 10:18:41;;;;;;;9.43;8.02;;;;;;;23.04;49.50;100549.47;5021429;27;97124;-68
2022/10/15 10:21:22;;;;;;;9.98;7.45;;;;;;;23.17;49.42;100546.53;5027878;27;97538;-67
2022/10/15 10:23:50;;;;;;;9.38;7.78;;;;;;;23.34;49.35;100548.53;5023461;27;99075;-68
2022/10/15 10:26:16;;;;;;;10.30;8.30;;;;;;;23.36;49.10;100544.72;5022495;27;99701;-69
2022/10/15 10:28:51;;;;;;;9.65;7.57;;;;;;;23.30;48.58;100545.25;5024932;27;98461;-68
2022/10/15 10:31:18;;;;;;;11.32;8.18;;;;;;;23.82;48.10;100548.56;5027775;28;97247;-66
2022/10/15 10:33:47;;;;;;;12.15;7.90;;;;;;;23.66;48.14;100550.97;5015412;27;99295;-67
2022/10/15 10:36:24;;;;;;;7.82;6.85;;;;;;;23.31;48.71;100544.25;4997669;27;98942;-68
2022/10/15 10:39:03;;;;;;;10.25;6.93;;;;;;;23.49;48.51;100551.69;5020742;27;98880;-68
2022/10/15 10:41:49;;;;;;;11.65;7.05;;;;;;;23.26;49.08;100546.53;5023420;27;98818;-67
2022/10/15 10:44:26;;;;;;;9.95;7.13;;;;;;;23.38;48.86;100542.69;5026352;28;100217;-67
2022/10/15 10:47:18;;;;;;;12.90;7.28;;;;;;;23.28;49.77;100549.94;5022970;28;99194;-68
2022/10/15 10:49:46;;;;;;;8.70;6.85;;;;;;;23.29;49.69;100543.56;5011589;27;97822;-67
2022/10/15 10:52:21;;;;;;;9.02;7.22;;;;;;;23.28;49.17;100546.41;5024692;28;98647;-69
2022/10/15 10:54:56;;;;;;;10.70;8.88;;;;;;;23.75;48.16;100547.44;5023427;27;99644;-68
2022/10/15 10:57:32;;;;;;;10.15;6.85;;;;;;;23.67;48.69;100547.28;5024750;28;101864;-70
2022/10/15 10:59:59;;;;;;;8.80;7.38;;;;;;;23.77;48.00;100554.38;5028845;28;96948;-69
2022/10/15 11:02:26;;;;;;;10.77;7.00;;;;;;;23.57;48.91;100554.50;5028015;27;96836;-69
2022/10/15 11:04:53;;;;;;;12.77;6.75;;;;;;;23.65;48.06;100552.81;5029792;27;96835;-68
2022/10/15 11:07:25;;;;;;;9.85;6.80;;;;;;;23.97;47.64;100546.25;5029359;28;100009;-67
2022/10/15 11:09:59;;;;;;;8.60;7.03;;;;;;;24.26;46.67;100543.50;5030233;28;97578;-68
2022/10/15 11:12:48;;;;;;;10.13;6.22;;;;;;;23.95;47.52;100549.09;5028544;28;96829;-69
2022/10/15 11:15:27;;;;;;;10.70;7.30;;;;;;;23.80;47.73;100540.59;5026852;28;99426;-68
2022/10/15 11:18:08;;;;;;;8.30;5.70;;;;;;;23.92;47.16;100552.06;5020135;28;99257;-68
2022/10/15 11:20:47;;;;;;;7.15;5.40;;;;;;;23.89;47.55;100552.38;5023329;27;96906;-72